FD15 weather

Tailwinds Airport
Jupiter, Florida, United States

Public forecast

Using degrees Fahrenheit for public forecast. Weather courtesy of forecast.io.

METAR (pilot weather report)

Closest report is Witham Field, 12.1 nm (22.5 km) N. Retrieved 2019/06/18 08:35 UTC (0 seconds ago):

KSUA 180835Z AUTO 17004KT 10SM CLR 25/22 A3004 RMK AO2 LTG DSNT NE

TAF (pilot weather forecast)

Closest forecast is Witham Field, 12.1 nm (22.5 km) N. Retrieved 2019/06/18 06:48 UTC (1 hour ago):

TAF KSUA 180546Z 1806/1906 18005KT P6SM FEW010 SCT035 BKN060 FM181400 18008KT P6SM SCT020 SCT070 BKN250 FM181800 19012G18KT P6SM VCTS SCT035CB BKN060 TEMPO 1819/1822 3SM TSRA BKN030CB FM190100 23004KT P6SM SCT050 BKN200